createdAt,value
2019-04-06T00:00:55.075Z,81.47
2019-04-06T00:11:00.653Z,98.37
2019-04-06T00:21:06.187Z,94.47
2019-04-06T00:31:25.412Z,81.47
2019-04-06T00:41:31.021Z,111.60
2019-04-06T00:51:36.533Z,104.67
2019-04-06T01:01:42.079Z,89.40
2019-04-06T01:11:47.600Z,84.57
2019-04-06T01:21:54.480Z,74.23
2019-04-06T01:32:00.101Z,82.17
2019-04-06T01:42:05.687Z,74.30
2019-04-06T01:52:11.315Z,61.53
2019-04-06T02:02:18.641Z,66.27
2019-04-06T02:12:24.175Z,66.83
2019-04-06T02:22:29.812Z,70.20
2019-04-06T02:32:36.905Z,63.80
2019-04-06T02:42:50.337Z,58.23
2019-04-06T02:52:55.841Z,63.53
2019-04-06T03:03:01.518Z,65.20
2019-04-06T03:13:08.259Z,62.20
2019-04-06T03:23:14.026Z,69.40
2019-04-06T03:33:21.255Z,74.53
2019-04-06T03:43:26.772Z,74.07
2019-04-06T03:53:32.274Z,68.13
2019-04-06T04:03:37.938Z,73.33
2019-04-06T04:13:43.475Z,64.07
2019-04-06T04:23:49.075Z,64.13
2019-04-06T04:33:54.705Z,75.93
2019-04-06T04:44:00.283Z,68.77
2019-04-06T04:54:05.880Z,78.93
2019-04-06T05:04:11.584Z,76.17
2019-04-06T05:14:53.557Z,83.73
2019-04-06T05:24:59.237Z,72.80
2019-04-06T05:35:06.650Z,76.60
2019-04-06T05:45:12.429Z,84.90
2019-04-06T05:55:18.003Z,79.57
2019-04-06T06:05:23.563Z,71.07
2019-04-06T06:15:29.115Z,70.20
2019-04-06T06:25:35.170Z,80.77
2019-04-06T06:35:40.760Z,102.80
2019-04-06T06:45:46.968Z,88.80
2019-04-06T06:55:53.455Z,89.60
2019-04-06T07:05:59.534Z,90.30
2019-04-06T07:16:05.030Z,86.57
2019-04-06T07:26:10.676Z,88.70
2019-04-06T07:36:16.181Z,97.67
2019-04-06T07:46:24.355Z,96.03
2019-04-06T07:56:31.332Z,104.33
2019-04-06T08:06:38.453Z,93.80
2019-04-06T08:16:43.963Z,85.87
2019-04-06T08:26:49.713Z,102.37
2019-04-06T08:36:55.300Z,84.87
2019-04-06T08:47:00.835Z,83.80
2019-04-06T08:57:06.318Z,81.23
2019-04-06T09:07:11.836Z,65.90
2019-04-06T09:17:17.311Z,59.80
2019-04-06T09:27:22.841Z,56.40
2019-04-06T09:37:28.482Z,32.03
2019-04-06T09:47:35.725Z,20.93
2019-04-06T09:57:44.967Z,21.87
2019-04-06T10:07:52.096Z,20.67
2019-04-06T10:18:05.379Z,22.60
2019-04-06T10:28:24.621Z,24.73
2019-04-06T10:38:36.126Z,23.87
2019-04-06T10:48:49.036Z,18.80
2019-04-06T10:59:05.306Z,23.50
2019-04-06T11:09:18.538Z,26.97
2019-04-06T11:19:41.707Z,22.50
2019-04-06T11:29:51.848Z,18.37
2019-04-06T11:40:11.635Z,18.07
2019-04-06T11:50:22.201Z,20.20
2019-04-06T12:00:45.949Z,21.33
2019-04-06T12:10:55.878Z,19.27
2019-04-06T12:21:05.701Z,25.10
2019-04-06T12:31:13.002Z,55.43
2019-04-06T12:41:23.119Z,86.97
2019-04-06T12:51:45.604Z,41.17
2019-04-06T13:02:04.976Z,57.63
2019-04-06T13:12:16.565Z,47.17
2019-04-06T13:22:40.208Z,67.60
2019-04-06T13:33:03.652Z,58.77
2019-04-06T13:43:21.796Z,45.10
2019-04-06T13:53:52.829Z,51.47
2019-04-06T14:04:08.286Z,26.30
2019-04-06T14:14:15.334Z,50.00
2019-04-06T14:24:39.048Z,40.73
2019-04-06T14:35:01.287Z,61.50
2019-04-06T14:45:14.835Z,95.67
2019-04-06T14:55:31.409Z,49.70
2019-04-06T15:05:48.494Z,79.90
2019-04-06T15:15:55.804Z,43.67
2019-04-06T15:26:21.034Z,62.77
2019-04-06T15:36:46.406Z,108.80
2019-04-06T15:47:08.880Z,114.03
2019-04-06T15:57:16.026Z,126.77
2019-04-06T16:07:39.634Z,242.17
2019-04-06T16:17:49.762Z,139.50
2019-04-06T16:28:01.965Z,138.97
2019-04-06T16:38:15.484Z,163.30
2019-04-06T16:48:22.966Z,141.73
2019-04-06T16:58:30.502Z,163.23
2019-04-06T17:08:41.274Z,175.33
2019-04-06T17:19:04.020Z,250.87
2019-04-06T17:29:27.896Z,273.17
2019-04-06T17:39:41.346Z,250.10
2019-04-06T18:00:32.967Z,141.07
2019-04-06T18:10:59.276Z,172.13
2019-04-06T18:21:05.364Z,192.90
2019-04-06T18:31:25.155Z,200.00
2019-04-06T18:41:31.191Z,202.03
2019-04-06T18:51:37.319Z,313.30
2019-04-06T19:01:44.887Z,286.37
2019-04-06T19:11:55.081Z,320.57
2019-04-06T19:21:59.023Z,280.50
2019-04-06T19:32:05.631Z,251.40
2019-04-06T19:42:11.810Z,237.30
2019-04-06T19:52:17.859Z,238.83
2019-04-06T20:02:24.767Z,267.90
2019-04-06T20:12:31.079Z,319.20
2019-04-06T20:22:37.623Z,317.60
2019-04-06T20:32:45.839Z,326.13
2019-04-06T20:42:51.879Z,211.87
2019-04-06T20:52:58.012Z,173.67
2019-04-06T21:03:05.077Z,133.10
2019-04-06T21:13:11.231Z,140.60
2019-04-06T21:23:17.227Z,143.93
2019-04-06T21:33:37.646Z,130.23
2019-04-06T21:43:54.661Z,139.87
2019-04-06T21:54:01.276Z,147.23
2019-04-06T22:04:08.077Z,149.40
2019-04-06T22:14:15.164Z,146.47
2019-04-06T22:24:21.285Z,153.57
2019-04-06T22:34:36.439Z,149.77
2019-04-06T22:44:34.761Z,138.10
2019-04-06T22:54:40.356Z,118.27
2019-04-06T23:04:50.910Z,134.07
2019-04-06T23:14:56.461Z,117.23
2019-04-06T23:25:02.722Z,159.27
2019-04-06T23:35:12.178Z,177.33
2019-04-06T23:45:17.676Z,168.97
2019-04-06T23:55:23.258Z,181.83
